sensor_id;sensor_type;location;lat;lon;timestamp;P1;durP1;ratioP1;P2;durP2;ratioP2
4980;SDS011;2507;50.392;7.482;2022-08-01T00:00:28;1.57;;;1.47;;
4980;SDS011;2507;50.392;7.482;2022-08-01T00:02:53;1.80;;;1.50;;
4980;SDS011;2507;50.392;7.482;2022-08-01T00:05:19;2.30;;;1.40;;
4980;SDS011;2507;50.392;7.482;2022-08-01T00:07:44;1.30;;;1.30;;
4980;SDS011;2507;50.392;7.482;2022-08-01T00:10:11;1.70;;;1.60;;
4980;SDS011;2507;50.392;7.482;2022-08-01T00:12:38;5.63;;;1.70;;
4980;SDS011;2507;50.392;7.482;2022-08-01T00:15:05;3.10;;;1.90;;
4980;SDS011;2507;50.392;7.482;2022-08-01T00:17:32;5.03;;;2.00;;
4980;SDS011;2507;50.392;7.482;2022-08-01T00:19:58;1.70;;;1.57;;
4980;SDS011;2507;50.392;7.482;2022-08-01T00:22:23;1.80;;;1.03;;
4980;SDS011;2507;50.392;7.482;2022-08-01T00:24:48;1.97;;;1.50;;
4980;SDS011;2507;50.392;7.482;2022-08-01T00:27:14;1.60;;;1.50;;
4980;SDS011;2507;50.392;7.482;2022-08-01T00:29:39;1.40;;;1.40;;
4980;SDS011;2507;50.392;7.482;2022-08-01T00:32:04;2.10;;;1.37;;
4980;SDS011;2507;50.392;7.482;2022-08-01T00:34:30;2.03;;;1.87;;
4980;SDS011;2507;50.392;7.482;2022-08-01T00:36:55;1.70;;;1.60;;
4980;SDS011;2507;50.392;7.482;2022-08-01T00:39:20;1.30;;;1.30;;
4980;SDS011;2507;50.392;7.482;2022-08-01T00:41:46;1.53;;;1.17;;
4980;SDS011;2507;50.392;7.482;2022-08-01T00:44:11;1.50;;;1.40;;
4980;SDS011;2507;50.392;7.482;2022-08-01T00:46:36;1.30;;;1.20;;
4980;SDS011;2507;50.392;7.482;2022-08-01T00:49:02;2.10;;;1.33;;
4980;SDS011;2507;50.392;7.482;2022-08-01T00:51:27;2.80;;;1.43;;
4980;SDS011;2507;50.392;7.482;2022-08-01T00:53:53;1.33;;;1.20;;
4980;SDS011;2507;50.392;7.482;2022-08-01T00:56:20;1.37;;;1.37;;
4980;SDS011;2507;50.392;7.482;2022-08-01T00:58:46;1.57;;;1.47;;
4980;SDS011;2507;50.392;7.482;2022-08-01T01:01:12;1.73;;;1.50;;
4980;SDS011;2507;50.392;7.482;2022-08-01T01:03:38;1.40;;;1.40;;
4980;SDS011;2507;50.392;7.482;2022-08-01T01:06:05;1.90;;;1.80;;
4980;SDS011;2507;50.392;7.482;2022-08-01T01:08:39;1.10;;;1.10;;
4980;SDS011;2507;50.392;7.482;2022-08-01T01:11:13;1.37;;;1.10;;
4980;SDS011;2507;50.392;7.482;2022-08-01T01:13:49;1.10;;;1.07;;
4980;SDS011;2507;50.392;7.482;2022-08-01T01:16:17;1.33;;;1.20;;
4980;SDS011;2507;50.392;7.482;2022-08-01T01:18:45;3.27;;;1.50;;
4980;SDS011;2507;50.392;7.482;2022-08-01T01:23:55;1.60;;;1.50;;
4980;SDS011;2507;50.392;7.482;2022-08-01T01:26:41;1.00;;;1.00;;
4980;SDS011;2507;50.392;7.482;2022-08-01T01:29:21;1.00;;;1.00;;
4980;SDS011;2507;50.392;7.482;2022-08-01T01:32:31;1.40;;;1.30;;
4980;SDS011;2507;50.392;7.482;2022-08-01T01:34:54;1.40;;;1.30;;
4980;SDS011;2507;50.392;7.482;2022-08-01T01:37:20;1.40;;;1.30;;
4980;SDS011;2507;50.392;7.482;2022-08-01T01:39:48;1.80;;;1.70;;
4980;SDS011;2507;50.392;7.482;2022-08-01T01:42:16;1.70;;;1.60;;
4980;SDS011;2507;50.392;7.482;2022-08-01T01:44:43;2.00;;;1.10;;
4980;SDS011;2507;50.392;7.482;2022-08-01T01:47:11;1.40;;;1.40;;
4980;SDS011;2507;50.392;7.482;2022-08-01T01:49:37;1.63;;;1.53;;
4980;SDS011;2507;50.392;7.482;2022-08-01T01:52:06;1.20;;;1.20;;
4980;SDS011;2507;50.392;7.482;2022-08-01T01:54:35;1.37;;;1.27;;
4980;SDS011;2507;50.392;7.482;2022-08-01T01:57:03;1.20;;;1.20;;
4980;SDS011;2507;50.392;7.482;2022-08-01T01:59:30;1.00;;;1.00;;
4980;SDS011;2507;50.392;7.482;2022-08-01T02:01:58;1.30;;;1.20;;
4980;SDS011;2507;50.392;7.482;2022-08-01T02:04:26;1.00;;;0.90;;
4980;SDS011;2507;50.392;7.482;2022-08-01T02:06:53;1.37;;;1.27;;
4980;SDS011;2507;50.392;7.482;2022-08-01T02:09:20;1.20;;;1.10;;
4980;SDS011;2507;50.392;7.482;2022-08-01T02:11:48;1.17;;;1.07;;
4980;SDS011;2507;50.392;7.482;2022-08-01T02:14:14;1.03;;;1.03;;
4980;SDS011;2507;50.392;7.482;2022-08-01T02:16:44;1.47;;;1.27;;
4980;SDS011;2507;50.392;7.482;2022-08-01T02:19:12;1.40;;;1.30;;
4980;SDS011;2507;50.392;7.482;2022-08-01T02:21:44;1.07;;;1.07;;
4980;SDS011;2507;50.392;7.482;2022-08-01T02:25:15;1.43;;;1.33;;
4980;SDS011;2507;50.392;7.482;2022-08-01T02:30:20;4.30;;;1.40;;
4980;SDS011;2507;50.392;7.482;2022-08-01T02:32:50;1.40;;;1.30;;
4980;SDS011;2507;50.392;7.482;2022-08-01T02:35:25;1.60;;;1.60;;
4980;SDS011;2507;50.392;7.482;2022-08-01T02:37:53;1.50;;;1.40;;
4980;SDS011;2507;50.392;7.482;2022-08-01T02:40:21;3.13;;;1.60;;
4980;SDS011;2507;50.392;7.482;2022-08-01T02:42:50;1.30;;;1.30;;
4980;SDS011;2507;50.392;7.482;2022-08-01T02:45:18;1.40;;;1.30;;
4980;SDS011;2507;50.392;7.482;2022-08-01T02:47:45;2.47;;;1.70;;
4980;SDS011;2507;50.392;7.482;2022-08-01T02:50:13;2.17;;;1.97;;
4980;SDS011;2507;50.392;7.482;2022-08-01T02:52:40;1.33;;;1.13;;
4980;SDS011;2507;50.392;7.482;2022-08-01T02:55:07;1.33;;;1.33;;
4980;SDS011;2507;50.392;7.482;2022-08-01T02:57:34;1.70;;;1.60;;
4980;SDS011;2507;50.392;7.482;2022-08-01T03:00:03;1.30;;;1.20;;
4980;SDS011;2507;50.392;7.482;2022-08-01T03:02:29;1.73;;;1.40;;
4980;SDS011;2507;50.392;7.482;2022-08-01T03:04:56;1.40;;;1.37;;
4980;SDS011;2507;50.392;7.482;2022-08-01T03:07:22;1.60;;;1.50;;
4980;SDS011;2507;50.392;7.482;2022-08-01T03:09:48;1.57;;;1.47;;
4980;SDS011;2507;50.392;7.482;2022-08-01T03:12:17;1.80;;;1.70;;
4980;SDS011;2507;50.392;7.482;2022-08-01T03:14:46;1.40;;;1.40;;
4980;SDS011;2507;50.392;7.482;2022-08-01T03:17:14;1.53;;;1.43;;
4980;SDS011;2507;50.392;7.482;2022-08-01T03:19:42;1.63;;;1.30;;
4980;SDS011;2507;50.392;7.482;2022-08-01T03:22:11;3.00;;;1.77;;
4980;SDS011;2507;50.392;7.482;2022-08-01T03:24:39;1.50;;;1.40;;
4980;SDS011;2507;50.392;7.482;2022-08-01T03:27:06;1.70;;;1.60;;
4980;SDS011;2507;50.392;7.482;2022-08-01T03:29:33;2.00;;;1.93;;
4980;SDS011;2507;50.392;7.482;2022-08-01T03:32:00;1.90;;;1.80;;
4980;SDS011;2507;50.392;7.482;2022-08-01T03:34:26;1.87;;;1.77;;
4980;SDS011;2507;50.392;7.482;2022-08-01T03:36:56;2.17;;;1.97;;
4980;SDS011;2507;50.392;7.482;2022-08-01T03:39:28;1.70;;;1.60;;
4980;SDS011;2507;50.392;7.482;2022-08-01T03:41:59;2.70;;;2.50;;
4980;SDS011;2507;50.392;7.482;2022-08-01T03:44:31;2.43;;;2.33;;
4980;SDS011;2507;50.392;7.482;2022-08-01T03:47:00;4.23;;;3.10;;
4980;SDS011;2507;50.392;7.482;2022-08-01T03:49:30;4.03;;;3.73;;
4980;SDS011;2507;50.392;7.482;2022-08-01T03:51:58;2.90;;;2.80;;
4980;SDS011;2507;50.392;7.482;2022-08-01T03:54:28;4.03;;;3.20;;
4980;SDS011;2507;50.392;7.482;2022-08-01T03:56:58;3.37;;;3.07;;
4980;SDS011;2507;50.392;7.482;2022-08-01T03:59:25;4.37;;;3.07;;
4980;SDS011;2507;50.392;7.482;2022-08-01T04:01:51;2.63;;;2.53;;
4980;SDS011;2507;50.392;7.482;2022-08-01T04:04:18;2.70;;;2.50;;
4980;SDS011;2507;50.392;7.482;2022-08-01T04:06:44;2.50;;;2.30;;
4980;SDS011;2507;50.392;7.482;2022-08-01T04:09:10;2.37;;;2.20;;
4980;SDS011;2507;50.392;7.482;2022-08-01T04:11:37;3.00;;;2.77;;
4980;SDS011;2507;50.392;7.482;2022-08-01T04:14:03;2.43;;;2.33;;
4980;SDS011;2507;50.392;7.482;2022-08-01T04:16:28;7.27;;;2.70;;
4980;SDS011;2507;50.392;7.482;2022-08-01T04:18:53;2.83;;;2.63;;
4980;SDS011;2507;50.392;7.482;2022-08-01T04:21:20;3.27;;;2.80;;
4980;SDS011;2507;50.392;7.482;2022-08-01T04:23:48;3.33;;;2.87;;
4980;SDS011;2507;50.392;7.482;2022-08-01T04:26:16;3.60;;;3.30;;
4980;SDS011;2507;50.392;7.482;2022-08-01T04:28:43;5.00;;;3.40;;
4980;SDS011;2507;50.392;7.482;2022-08-01T04:31:09;3.30;;;3.00;;
4980;SDS011;2507;50.392;7.482;2022-08-01T04:33:38;2.90;;;2.70;;
4980;SDS011;2507;50.392;7.482;2022-08-01T04:36:06;5.33;;;2.73;;
4980;SDS011;2507;50.392;7.482;2022-08-01T04:38:35;2.57;;;2.47;;
4980;SDS011;2507;50.392;7.482;2022-08-01T04:41:01;2.87;;;2.63;;
4980;SDS011;2507;50.392;7.482;2022-08-01T04:43:27;3.13;;;2.83;;
4980;SDS011;2507;50.392;7.482;2022-08-01T04:45:53;2.97;;;2.77;;
4980;SDS011;2507;50.392;7.482;2022-08-01T04:48:19;3.23;;;3.03;;
4980;SDS011;2507;50.392;7.482;2022-08-01T04:50:49;2.80;;;2.67;;
4980;SDS011;2507;50.392;7.482;2022-08-01T04:53:19;4.23;;;3.30;;
4980;SDS011;2507;50.392;7.482;2022-08-01T04:55:46;4.07;;;3.10;;
4980;SDS011;2507;50.392;7.482;2022-08-01T04:58:12;3.87;;;3.57;;
4980;SDS011;2507;50.392;7.482;2022-08-01T05:00:39;3.23;;;2.90;;
4980;SDS011;2507;50.392;7.482;2022-08-01T05:03:05;4.07;;;3.77;;
4980;SDS011;2507;50.392;7.482;2022-08-01T05:05:30;3.93;;;3.60;;
4980;SDS011;2507;50.392;7.482;2022-08-01T05:07:56;3.07;;;2.97;;
4980;SDS011;2507;50.392;7.482;2022-08-01T05:10:22;4.30;;;3.37;;
4980;SDS011;2507;50.392;7.482;2022-08-01T05:12:47;5.00;;;3.20;;
4980;SDS011;2507;50.392;7.482;2022-08-01T05:15:12;3.43;;;3.10;;
4980;SDS011;2507;50.392;7.482;2022-08-01T05:17:37;3.50;;;3.30;;
4980;SDS011;2507;50.392;7.482;2022-08-01T05:20:03;6.03;;;3.37;;
4980;SDS011;2507;50.392;7.482;2022-08-01T05:22:31;3.30;;;3.10;;
4980;SDS011;2507;50.392;7.482;2022-08-01T05:24:56;4.63;;;3.57;;
4980;SDS011;2507;50.392;7.482;2022-08-01T05:27:22;4.33;;;3.40;;
4980;SDS011;2507;50.392;7.482;2022-08-01T05:29:47;3.07;;;2.87;;
4980;SDS011;2507;50.392;7.482;2022-08-01T05:32:12;4.50;;;3.20;;
4980;SDS011;2507;50.392;7.482;2022-08-01T05:34:37;3.33;;;3.10;;
4980;SDS011;2507;50.392;7.482;2022-08-01T05:37:03;4.40;;;3.50;;
4980;SDS011;2507;50.392;7.482;2022-08-01T05:39:28;3.90;;;3.33;;
4980;SDS011;2507;50.392;7.482;2022-08-01T05:41:53;3.90;;;3.50;;
4980;SDS011;2507;50.392;7.482;2022-08-01T05:44:19;5.13;;;4.10;;
4980;SDS011;2507;50.392;7.482;2022-08-01T05:46:44;4.40;;;3.40;;
4980;SDS011;2507;50.392;7.482;2022-08-01T05:49:09;3.80;;;3.60;;
4980;SDS011;2507;50.392;7.482;2022-08-01T05:51:34;4.00;;;3.70;;
4980;SDS011;2507;50.392;7.482;2022-08-01T05:54:00;4.13;;;3.73;;
4980;SDS011;2507;50.392;7.482;2022-08-01T05:56:25;5.97;;;3.53;;
4980;SDS011;2507;50.392;7.482;2022-08-01T05:58:51;4.13;;;3.73;;
4980;SDS011;2507;50.392;7.482;2022-08-01T06:01:18;3.70;;;3.50;;
4980;SDS011;2507;50.392;7.482;2022-08-01T06:03:43;3.70;;;3.33;;
4980;SDS011;2507;50.392;7.482;2022-08-01T06:06:09;7.60;;;4.30;;
4980;SDS011;2507;50.392;7.482;2022-08-01T06:08:34;4.70;;;3.30;;
4980;SDS011;2507;50.392;7.482;2022-08-01T06:10:59;3.80;;;3.60;;
4980;SDS011;2507;50.392;7.482;2022-08-01T06:13:25;3.50;;;3.30;;
4980;SDS011;2507;50.392;7.482;2022-08-01T06:15:50;3.87;;;3.47;;
4980;SDS011;2507;50.392;7.482;2022-08-01T06:18:15;4.23;;;3.80;;
4980;SDS011;2507;50.392;7.482;2022-08-01T06:20:41;5.00;;;4.50;;
4980;SDS011;2507;50.392;7.482;2022-08-01T06:23:07;3.83;;;3.60;;
4980;SDS011;2507;50.392;7.482;2022-08-01T06:25:32;4.10;;;3.80;;
4980;SDS011;2507;50.392;7.482;2022-08-01T06:27:58;7.43;;;4.50;;
4980;SDS011;2507;50.392;7.482;2022-08-01T06:30:23;5.00;;;4.43;;
4980;SDS011;2507;50.392;7.482;2022-08-01T06:32:49;4.53;;;4.13;;
4980;SDS011;2507;50.392;7.482;2022-08-01T06:35:14;4.70;;;4.30;;
4980;SDS011;2507;50.392;7.482;2022-08-01T06:37:40;4.43;;;4.03;;
4980;SDS011;2507;50.392;7.482;2022-08-01T06:40:08;5.70;;;4.20;;
4980;SDS011;2507;50.392;7.482;2022-08-01T06:42:35;6.43;;;4.57;;
4980;SDS011;2507;50.392;7.482;2022-08-01T06:45:02;4.60;;;4.30;;
4980;SDS011;2507;50.392;7.482;2022-08-01T06:47:28;6.60;;;4.20;;
4980;SDS011;2507;50.392;7.482;2022-08-01T06:49:54;4.63;;;4.30;;
4980;SDS011;2507;50.392;7.482;2022-08-01T06:52:19;4.03;;;3.73;;
4980;SDS011;2507;50.392;7.482;2022-08-01T06:54:44;4.07;;;3.73;;
4980;SDS011;2507;50.392;7.482;2022-08-01T06:57:09;3.97;;;3.67;;
4980;SDS011;2507;50.392;7.482;2022-08-01T06:59:35;3.87;;;3.40;;
4980;SDS011;2507;50.392;7.482;2022-08-01T07:02:00;4.30;;;4.00;;
4980;SDS011;2507;50.392;7.482;2022-08-01T07:04:28;4.10;;;3.80;;
4980;SDS011;2507;50.392;7.482;2022-08-01T07:06:53;5.10;;;4.07;;
4980;SDS011;2507;50.392;7.482;2022-08-01T07:09:19;4.40;;;4.10;;
4980;SDS011;2507;50.392;7.482;2022-08-01T07:11:44;4.47;;;4.13;;
4980;SDS011;2507;50.392;7.482;2022-08-01T07:14:09;4.03;;;3.73;;
4980;SDS011;2507;50.392;7.482;2022-08-01T07:16:35;4.10;;;3.70;;
4980;SDS011;2507;50.392;7.482;2022-08-01T07:19:00;4.13;;;3.83;;
4980;SDS011;2507;50.392;7.482;2022-08-01T07:21:25;3.50;;;3.30;;
4980;SDS011;2507;50.392;7.482;2022-08-01T07:23:50;3.63;;;3.33;;
4980;SDS011;2507;50.392;7.482;2022-08-01T07:26:16;4.00;;;3.77;;
4980;SDS011;2507;50.392;7.482;2022-08-01T07:28:42;3.47;;;3.20;;
4980;SDS011;2507;50.392;7.482;2022-08-01T07:31:07;4.53;;;3.70;;
4980;SDS011;2507;50.392;7.482;2022-08-01T07:33:33;8.80;;;4.03;;
4980;SDS011;2507;50.392;7.482;2022-08-01T07:35:58;4.57;;;4.17;;
4980;SDS011;2507;50.392;7.482;2022-08-01T07:38:23;3.90;;;3.70;;
4980;SDS011;2507;50.392;7.482;2022-08-01T07:40:48;4.70;;;3.70;;
4980;SDS011;2507;50.392;7.482;2022-08-01T07:43:14;13.13;;;11.73;;
4980;SDS011;2507;50.392;7.482;2022-08-01T07:45:40;4.93;;;4.00;;
4980;SDS011;2507;50.392;7.482;2022-08-01T07:48:06;5.33;;;3.30;;
4980;SDS011;2507;50.392;7.482;2022-08-01T07:50:32;5.63;;;4.57;;
4980;SDS011;2507;50.392;7.482;2022-08-01T07:52:58;3.77;;;3.30;;
4980;SDS011;2507;50.392;7.482;2022-08-01T07:55:24;2.87;;;2.77;;
4980;SDS011;2507;50.392;7.482;2022-08-01T07:57:50;3.83;;;3.53;;
4980;SDS011;2507;50.392;7.482;2022-08-01T08:00:15;3.17;;;2.97;;
4980;SDS011;2507;50.392;7.482;2022-08-01T08:02:41;3.33;;;3.10;;
4980;SDS011;2507;50.392;7.482;2022-08-01T08:05:07;4.80;;;3.03;;
4980;SDS011;2507;50.392;7.482;2022-08-01T08:07:32;3.93;;;3.57;;
4980;SDS011;2507;50.392;7.482;2022-08-01T08:09:58;3.57;;;3.27;;
4980;SDS011;2507;50.392;7.482;2022-08-01T08:12:23;3.03;;;2.80;;
4980;SDS011;2507;50.392;7.482;2022-08-01T08:14:49;3.43;;;3.23;;
4980;SDS011;2507;50.392;7.482;2022-08-01T08:17:14;4.40;;;3.20;;
4980;SDS011;2507;50.392;7.482;2022-08-01T08:19:39;2.87;;;2.63;;
4980;SDS011;2507;50.392;7.482;2022-08-01T08:22:05;4.30;;;3.00;;
4980;SDS011;2507;50.392;7.482;2022-08-01T08:24:34;3.30;;;3.10;;
4980;SDS011;2507;50.392;7.482;2022-08-01T08:27:00;3.17;;;2.90;;
4980;SDS011;2507;50.392;7.482;2022-08-01T08:29:26;3.40;;;3.23;;
4980;SDS011;2507;50.392;7.482;2022-08-01T08:31:54;2.90;;;2.80;;
4980;SDS011;2507;50.392;7.482;2022-08-01T08:34:20;3.00;;;2.90;;
4980;SDS011;2507;50.392;7.482;2022-08-01T08:36:46;4.37;;;3.40;;
4980;SDS011;2507;50.392;7.482;2022-08-01T08:39:11;3.40;;;3.20;;
4980;SDS011;2507;50.392;7.482;2022-08-01T08:41:36;3.87;;;3.30;;
4980;SDS011;2507;50.392;7.482;2022-08-01T08:44:05;3.97;;;3.53;;
4980;SDS011;2507;50.392;7.482;2022-08-01T08:46:33;3.50;;;2.73;;
4980;SDS011;2507;50.392;7.482;2022-08-01T08:49:04;3.20;;;3.03;;
4980;SDS011;2507;50.392;7.482;2022-08-01T08:51:31;3.10;;;2.90;;
4980;SDS011;2507;50.392;7.482;2022-08-01T08:53:59;8.10;;;3.87;;
4980;SDS011;2507;50.392;7.482;2022-08-01T08:56:25;3.33;;;3.13;;
4980;SDS011;2507;50.392;7.482;2022-08-01T08:58:51;3.20;;;2.90;;
4980;SDS011;2507;50.392;7.482;2022-08-01T09:01:17;5.47;;;3.60;;
4980;SDS011;2507;50.392;7.482;2022-08-01T09:03:43;5.27;;;3.47;;
4980;SDS011;2507;50.392;7.482;2022-08-01T09:06:09;3.50;;;3.30;;
4980;SDS011;2507;50.392;7.482;2022-08-01T09:08:34;3.93;;;3.73;;
4980;SDS011;2507;50.392;7.482;2022-08-01T09:11:00;4.50;;;3.37;;
4980;SDS011;2507;50.392;7.482;2022-08-01T09:13:25;5.40;;;3.67;;
4980;SDS011;2507;50.392;7.482;2022-08-01T09:15:51;4.20;;;3.93;;
4980;SDS011;2507;50.392;7.482;2022-08-01T09:18:28;4.10;;;3.80;;
4980;SDS011;2507;50.392;7.482;2022-08-01T09:26:13;4.00;;;3.80;;
4980;SDS011;2507;50.392;7.482;2022-08-01T09:28:40;4.37;;;3.97;;
4980;SDS011;2507;50.392;7.482;2022-08-01T09:31:06;4.70;;;4.30;;
4980;SDS011;2507;50.392;7.482;2022-08-01T09:33:58;4.53;;;4.13;;
4980;SDS011;2507;50.392;7.482;2022-08-01T09:36:45;4.50;;;4.20;;
4980;SDS011;2507;50.392;7.482;2022-08-01T09:39:13;4.33;;;4.07;;
4980;SDS011;2507;50.392;7.482;2022-08-01T09:41:40;3.97;;;3.67;;
4980;SDS011;2507;50.392;7.482;2022-08-01T09:44:05;4.90;;;4.23;;
4980;SDS011;2507;50.392;7.482;2022-08-01T09:46:30;4.47;;;4.17;;
4980;SDS011;2507;50.392;7.482;2022-08-01T09:48:57;4.67;;;4.30;;
4980;SDS011;2507;50.392;7.482;2022-08-01T09:51:32;3.80;;;3.60;;
4980;SDS011;2507;50.392;7.482;2022-08-01T09:53:59;4.00;;;3.73;;
4980;SDS011;2507;50.392;7.482;2022-08-01T09:56:25;4.33;;;4.00;;
4980;SDS011;2507;50.392;7.482;2022-08-01T09:58:51;3.77;;;3.50;;
4980;SDS011;2507;50.392;7.482;2022-08-01T10:01:26;3.27;;;3.07;;
4980;SDS011;2507;50.392;7.482;2022-08-01T10:04:03;3.50;;;3.30;;
4980;SDS011;2507;50.392;7.482;2022-08-01T10:06:30;3.77;;;3.57;;
4980;SDS011;2507;50.392;7.482;2022-08-01T10:08:55;4.30;;;4.00;;
4980;SDS011;2507;50.392;7.482;2022-08-01T10:11:21;4.07;;;3.77;;
4980;SDS011;2507;50.392;7.482;2022-08-01T10:13:47;4.40;;;4.10;;
4980;SDS011;2507;50.392;7.482;2022-08-01T10:16:13;4.00;;;3.70;;
4980;SDS011;2507;50.392;7.482;2022-08-01T10:18:40;4.17;;;3.87;;
4980;SDS011;2507;50.392;7.482;2022-08-01T10:21:06;3.97;;;3.63;;
4980;SDS011;2507;50.392;7.482;2022-08-01T10:23:35;4.47;;;4.17;;
4980;SDS011;2507;50.392;7.482;2022-08-01T10:26:02;4.50;;;4.10;;
4980;SDS011;2507;50.392;7.482;2022-08-01T10:28:30;5.97;;;4.23;;
4980;SDS011;2507;50.392;7.482;2022-08-01T10:30:58;4.20;;;3.80;;
4980;SDS011;2507;50.392;7.482;2022-08-01T10:33:25;3.40;;;3.20;;
4980;SDS011;2507;50.392;7.482;2022-08-01T10:35:50;3.73;;;3.53;;
4980;SDS011;2507;50.392;7.482;2022-08-01T10:38:16;3.50;;;3.30;;
4980;SDS011;2507;50.392;7.482;2022-08-01T10:40:42;5.93;;;3.80;;
4980;SDS011;2507;50.392;7.482;2022-08-01T10:43:11;4.13;;;3.87;;
4980;SDS011;2507;50.392;7.482;2022-08-01T10:45:39;4.00;;;3.80;;
4980;SDS011;2507;50.392;7.482;2022-08-01T10:48:12;4.40;;;4.00;;
4980;SDS011;2507;50.392;7.482;2022-08-01T10:50:44;3.57;;;3.37;;
4980;SDS011;2507;50.392;7.482;2022-08-01T11:09:00;4.40;;;4.00;;
4980;SDS011;2507;50.392;7.482;2022-08-01T11:11:28;4.93;;;4.30;;
4980;SDS011;2507;50.392;7.482;2022-08-01T11:16:51;6.00;;;3.90;;
4980;SDS011;2507;50.392;7.482;2022-08-01T11:19:16;4.50;;;4.20;;
4980;SDS011;2507;50.392;7.482;2022-08-01T11:29:41;3.57;;;3.40;;
4980;SDS011;2507;50.392;7.482;2022-08-01T11:32:28;4.40;;;4.00;;
4980;SDS011;2507;50.392;7.482;2022-08-01T11:34:53;5.67;;;5.10;;
4980;SDS011;2507;50.392;7.482;2022-08-01T11:37:28;5.33;;;5.03;;
4980;SDS011;2507;50.392;7.482;2022-08-01T11:42:40;4.63;;;4.33;;
4980;SDS011;2507;50.392;7.482;2022-08-01T11:45:06;4.83;;;4.53;;
4980;SDS011;2507;50.392;7.482;2022-08-01T11:47:47;4.90;;;4.23;;
4980;SDS011;2507;50.392;7.482;2022-08-01T11:50:35;3.97;;;3.77;;
4980;SDS011;2507;50.392;7.482;2022-08-01T11:53:04;4.17;;;3.87;;
4980;SDS011;2507;50.392;7.482;2022-08-01T11:55:31;2.93;;;2.83;;
4980;SDS011;2507;50.392;7.482;2022-08-01T11:58:06;3.70;;;3.50;;
4980;SDS011;2507;50.392;7.482;2022-08-01T12:00:33;3.70;;;3.50;;
4980;SDS011;2507;50.392;7.482;2022-08-01T12:03:02;3.97;;;3.67;;
4980;SDS011;2507;50.392;7.482;2022-08-01T12:05:29;5.10;;;4.47;;
4980;SDS011;2507;50.392;7.482;2022-08-01T12:07:58;4.13;;;3.93;;
4980;SDS011;2507;50.392;7.482;2022-08-01T12:10:25;4.70;;;4.20;;
4980;SDS011;2507;50.392;7.482;2022-08-01T12:13:00;4.30;;;3.90;;
4980;SDS011;2507;50.392;7.482;2022-08-01T12:15:30;4.10;;;3.77;;
4980;SDS011;2507;50.392;7.482;2022-08-01T12:17:59;4.13;;;3.90;;
4980;SDS011;2507;50.392;7.482;2022-08-01T12:20:27;4.07;;;3.87;;
4980;SDS011;2507;50.392;7.482;2022-08-01T12:22:59;3.37;;;3.27;;
4980;SDS011;2507;50.392;7.482;2022-08-01T12:25:25;3.57;;;3.37;;
4980;SDS011;2507;50.392;7.482;2022-08-01T12:27:51;3.00;;;2.90;;
4980;SDS011;2507;50.392;7.482;2022-08-01T12:30:18;3.40;;;3.20;;
4980;SDS011;2507;50.392;7.482;2022-08-01T12:32:47;2.90;;;2.70;;
4980;SDS011;2507;50.392;7.482;2022-08-01T12:35:13;3.80;;;3.50;;
4980;SDS011;2507;50.392;7.482;2022-08-01T12:37:45;3.20;;;3.03;;
4980;SDS011;2507;50.392;7.482;2022-08-01T12:42:46;3.70;;;3.47;;
4980;SDS011;2507;50.392;7.482;2022-08-01T12:45:36;10.13;;;3.40;;
4980;SDS011;2507;50.392;7.482;2022-08-01T12:48:10;3.50;;;3.30;;
4980;SDS011;2507;50.392;7.482;2022-08-01T12:50:45;2.87;;;2.70;;
4980;SDS011;2507;50.392;7.482;2022-08-01T12:53:13;3.10;;;3.00;;
4980;SDS011;2507;50.392;7.482;2022-08-01T12:55:43;3.07;;;2.87;;
4980;SDS011;2507;50.392;7.482;2022-08-01T12:58:14;2.90;;;2.80;;
4980;SDS011;2507;50.392;7.482;2022-08-01T13:00:42;3.73;;;3.10;;
4980;SDS011;2507;50.392;7.482;2022-08-01T13:03:10;3.47;;;3.27;;
4980;SDS011;2507;50.392;7.482;2022-08-01T13:05:45;5.50;;;2.60;;
4980;SDS011;2507;50.392;7.482;2022-08-01T13:08:13;2.70;;;2.60;;
4980;SDS011;2507;50.392;7.482;2022-08-01T13:10:45;2.93;;;2.70;;
4980;SDS011;2507;50.392;7.482;2022-08-01T13:13:12;2.70;;;2.60;;
4980;SDS011;2507;50.392;7.482;2022-08-01T13:15:39;2.80;;;2.70;;
4980;SDS011;2507;50.392;7.482;2022-08-01T13:18:28;3.87;;;3.00;;
4980;SDS011;2507;50.392;7.482;2022-08-01T13:23:31;3.47;;;3.20;;
4980;SDS011;2507;50.392;7.482;2022-08-01T13:25:57;3.17;;;3.07;;
4980;SDS011;2507;50.392;7.482;2022-08-01T13:28:24;4.30;;;3.30;;
4980;SDS011;2507;50.392;7.482;2022-08-01T13:30:54;3.30;;;3.10;;
4980;SDS011;2507;50.392;7.482;2022-08-01T13:33:21;3.93;;;3.70;;
4980;SDS011;2507;50.392;7.482;2022-08-01T13:35:48;4.20;;;3.90;;
4980;SDS011;2507;50.392;7.482;2022-08-01T13:38:14;4.07;;;3.87;;
4980;SDS011;2507;50.392;7.482;2022-08-01T13:40:40;3.87;;;3.57;;
4980;SDS011;2507;50.392;7.482;2022-08-01T13:43:05;3.83;;;3.53;;
4980;SDS011;2507;50.392;7.482;2022-08-01T13:45:30;3.17;;;3.07;;
4980;SDS011;2507;50.392;7.482;2022-08-01T13:47:55;3.73;;;3.53;;
4980;SDS011;2507;50.392;7.482;2022-08-01T13:50:21;3.57;;;3.37;;
4980;SDS011;2507;50.392;7.482;2022-08-01T13:52:46;2.93;;;2.73;;
4980;SDS011;2507;50.392;7.482;2022-08-01T13:55:11;3.00;;;2.83;;
4980;SDS011;2507;50.392;7.482;2022-08-01T13:57:37;3.00;;;2.80;;
4980;SDS011;2507;50.392;7.482;2022-08-01T14:00:06;4.00;;;3.63;;
4980;SDS011;2507;50.392;7.482;2022-08-01T14:02:33;3.90;;;3.60;;
4980;SDS011;2507;50.392;7.482;2022-08-01T14:04:59;4.30;;;4.10;;
4980;SDS011;2507;50.392;7.482;2022-08-01T14:07:24;5.00;;;4.63;;
4980;SDS011;2507;50.392;7.482;2022-08-01T14:09:50;4.80;;;4.40;;
4980;SDS011;2507;50.392;7.482;2022-08-01T14:12:15;4.83;;;4.43;;
4980;SDS011;2507;50.392;7.482;2022-08-01T14:14:41;4.50;;;4.20;;
4980;SDS011;2507;50.392;7.482;2022-08-01T14:17:06;3.90;;;3.70;;
4980;SDS011;2507;50.392;7.482;2022-08-01T14:19:31;5.50;;;4.60;;
4980;SDS011;2507;50.392;7.482;2022-08-01T14:21:56;4.60;;;4.20;;
4980;SDS011;2507;50.392;7.482;2022-08-01T14:24:22;6.00;;;4.27;;
4980;SDS011;2507;50.392;7.482;2022-08-01T14:26:48;4.20;;;4.00;;
4980;SDS011;2507;50.392;7.482;2022-08-01T14:29:13;4.80;;;4.30;;
4980;SDS011;2507;50.392;7.482;2022-08-01T14:31:39;4.37;;;3.97;;
4980;SDS011;2507;50.392;7.482;2022-08-01T14:34:04;4.60;;;3.97;;
4980;SDS011;2507;50.392;7.482;2022-08-01T14:36:29;4.67;;;4.23;;
4980;SDS011;2507;50.392;7.482;2022-08-01T14:38:54;4.27;;;4.00;;
4980;SDS011;2507;50.392;7.482;2022-08-01T14:41:20;4.00;;;3.80;;
4980;SDS011;2507;50.392;7.482;2022-08-01T14:43:45;7.93;;;4.57;;
4980;SDS011;2507;50.392;7.482;2022-08-01T14:46:10;4.40;;;4.10;;
4980;SDS011;2507;50.392;7.482;2022-08-01T14:48:37;3.93;;;3.50;;
4980;SDS011;2507;50.392;7.482;2022-08-01T14:51:02;4.30;;;3.83;;
4980;SDS011;2507;50.392;7.482;2022-08-01T14:53:29;3.83;;;3.53;;
4980;SDS011;2507;50.392;7.482;2022-08-01T14:55:54;3.60;;;3.33;;
4980;SDS011;2507;50.392;7.482;2022-08-01T14:58:19;3.80;;;3.50;;
4980;SDS011;2507;50.392;7.482;2022-08-01T15:00:45;3.33;;;3.13;;
4980;SDS011;2507;50.392;7.482;2022-08-01T15:03:10;4.33;;;3.80;;
4980;SDS011;2507;50.392;7.482;2022-08-01T15:05:35;3.47;;;3.27;;
4980;SDS011;2507;50.392;7.482;2022-08-01T15:08:01;3.57;;;3.27;;
4980;SDS011;2507;50.392;7.482;2022-08-01T15:10:26;6.50;;;4.03;;
4980;SDS011;2507;50.392;7.482;2022-08-01T15:12:52;3.30;;;3.10;;
4980;SDS011;2507;50.392;7.482;2022-08-01T15:15:17;3.33;;;3.13;;
4980;SDS011;2507;50.392;7.482;2022-08-01T15:17:44;4.17;;;3.20;;
4980;SDS011;2507;50.392;7.482;2022-08-01T15:20:10;3.40;;;3.10;;
4980;SDS011;2507;50.392;7.482;2022-08-01T15:22:35;3.33;;;3.03;;
4980;SDS011;2507;50.392;7.482;2022-08-01T15:25:01;3.80;;;3.40;;
4980;SDS011;2507;50.392;7.482;2022-08-01T15:27:27;3.30;;;3.00;;
4980;SDS011;2507;50.392;7.482;2022-08-01T15:29:53;3.00;;;2.80;;
4980;SDS011;2507;50.392;7.482;2022-08-01T15:32:19;5.10;;;2.97;;
4980;SDS011;2507;50.392;7.482;2022-08-01T15:34:45;6.23;;;2.80;;
4980;SDS011;2507;50.392;7.482;2022-08-01T15:37:10;6.80;;;3.27;;
4980;SDS011;2507;50.392;7.482;2022-08-01T15:39:36;6.53;;;2.93;;
4980;SDS011;2507;50.392;7.482;2022-08-01T15:42:04;4.10;;;3.00;;
4980;SDS011;2507;50.392;7.482;2022-08-01T15:44:32;3.60;;;3.40;;
4980;SDS011;2507;50.392;7.482;2022-08-01T15:46:58;3.40;;;3.20;;
4980;SDS011;2507;50.392;7.482;2022-08-01T15:49:25;3.37;;;3.07;;
4980;SDS011;2507;50.392;7.482;2022-08-01T15:51:51;3.43;;;3.13;;
4980;SDS011;2507;50.392;7.482;2022-08-01T15:54:16;4.37;;;2.90;;
4980;SDS011;2507;50.392;7.482;2022-08-01T15:56:42;4.00;;;3.60;;
4980;SDS011;2507;50.392;7.482;2022-08-01T15:59:07;4.10;;;3.80;;
4980;SDS011;2507;50.392;7.482;2022-08-01T16:01:33;3.43;;;3.23;;